sensor_id;sensor_type;location;lat;lon;timestamp;pressure;altitude;pressure_sealevel;temperature;humidity
17373;BME280;8803;48.116;11.590;2023-10-31T00:03:44;94151.97;;;14.85;100.00
17373;BME280;8803;48.116;11.590;2023-10-31T00:05:49;94154.52;;;14.76;100.00
17373;BME280;8803;48.116;11.590;2023-10-31T00:10:11;94149.67;;;14.76;100.00
17373;BME280;8803;48.116;11.590;2023-10-31T00:12:16;94167.67;;;14.71;100.00
17373;BME280;8803;48.116;11.590;2023-10-31T00:14:21;94161.69;;;14.69;100.00
17373;BME280;8803;48.116;11.590;2023-10-31T00:16:25;94165.58;;;14.67;100.00
17373;BME280;8803;48.116;11.590;2023-10-31T00:18:30;94160.44;;;14.65;100.00
17373;BME280;8803;48.116;11.590;2023-10-31T00:20:34;94158.47;;;14.63;100.00
17373;BME280;8803;48.116;11.590;2023-10-31T00:22:39;94158.97;;;14.63;100.00
17373;BME280;8803;48.116;11.590;2023-10-31T00:24:43;94157.52;;;14.60;100.00
17373;BME280;8803;48.116;11.590;2023-10-31T00:26:48;94155.87;;;14.59;100.00
17373;BME280;8803;48.116;11.590;2023-10-31T00:28:53;94158.09;;;14.56;100.00
17373;BME280;8803;48.116;11.590;2023-10-31T00:30:57;94167.17;;;14.55;100.00
17373;BME280;8803;48.116;11.590;2023-10-31T00:33:04;94170.06;;;14.53;100.00
17373;BME280;8803;48.116;11.590;2023-10-31T00:35:10;94168.27;;;14.50;100.00
17373;BME280;8803;48.116;11.590;2023-10-31T00:37:15;94167.13;;;14.48;100.00
17373;BME280;8803;48.116;11.590;2023-10-31T00:39:19;94166.50;;;14.46;100.00
17373;BME280;8803;48.116;11.590;2023-10-31T00:43:36;94156.09;;;14.47;100.00
17373;BME280;8803;48.116;11.590;2023-10-31T00:47:53;94159.18;;;14.44;99.93
17373;BME280;8803;48.116;11.590;2023-10-31T00:49:58;94156.25;;;14.39;99.68
17373;BME280;8803;48.116;11.590;2023-10-31T00:52:04;94155.63;;;14.37;99.43
17373;BME280;8803;48.116;11.590;2023-10-31T00:56:26;94149.56;;;14.39;100.00
17373;BME280;8803;48.116;11.590;2023-10-31T00:58:30;94162.73;;;14.34;100.00
17373;BME280;8803;48.116;11.590;2023-10-31T01:02:49;94168.89;;;14.35;99.84
17373;BME280;8803;48.116;11.590;2023-10-31T01:07:09;94153.94;;;14.30;100.00
17373;BME280;8803;48.116;11.590;2023-10-31T01:09:15;94161.19;;;14.25;100.00
17373;BME280;8803;48.116;11.590;2023-10-31T01:11:19;94159.72;;;14.22;100.00
17373;BME280;8803;48.116;11.590;2023-10-31T01:13:24;94160.22;;;14.22;99.53
17373;BME280;8803;48.116;11.590;2023-10-31T01:15:29;94165.58;;;14.22;99.34
17373;BME280;8803;48.116;11.590;2023-10-31T01:17:33;94162.09;;;14.21;98.95
17373;BME280;8803;48.116;11.590;2023-10-31T01:19:38;94163.61;;;14.20;98.90
17373;BME280;8803;48.116;11.590;2023-10-31T01:23:55;94181.77;;;14.24;99.21
17373;BME280;8803;48.116;11.590;2023-10-31T01:26:00;94173.69;;;14.18;98.90
17373;BME280;8803;48.116;11.590;2023-10-31T01:28:05;94179.03;;;14.18;98.70
17373;BME280;8803;48.116;11.590;2023-10-31T01:32:27;94166.41;;;14.22;99.20
17373;BME280;8803;48.116;11.590;2023-10-31T01:36:44;94176.19;;;14.19;99.28
17373;BME280;8803;48.116;11.590;2023-10-31T01:41:12;94178.33;;;14.20;99.65
17373;BME280;8803;48.116;11.590;2023-10-31T01:43:30;94186.13;;;14.15;98.81
17373;BME280;8803;48.116;11.590;2023-10-31T01:45:34;94191.66;;;14.13;99.04
17373;BME280;8803;48.116;11.590;2023-10-31T01:47:39;94189.31;;;14.14;99.05
17373;BME280;8803;48.116;11.590;2023-10-31T01:49:44;94189.52;;;14.13;98.42
17373;BME280;8803;48.116;11.590;2023-10-31T01:51:49;94181.99;;;14.12;98.47
17373;BME280;8803;48.116;11.590;2023-10-31T01:56:11;94184.39;;;14.18;98.52
17373;BME280;8803;48.116;11.590;2023-10-31T01:58:15;94190.52;;;14.12;97.88
17373;BME280;8803;48.116;11.590;2023-10-31T02:02:35;94180.45;;;14.14;98.75
17373;BME280;8803;48.116;11.590;2023-10-31T02:04:41;94183.53;;;14.11;98.66
17373;BME280;8803;48.116;11.590;2023-10-31T02:06:46;94182.70;;;14.10;98.48
17373;BME280;8803;48.116;11.590;2023-10-31T02:08:51;94190.93;;;14.09;98.45
17373;BME280;8803;48.116;11.590;2023-10-31T02:10:55;94192.56;;;14.10;97.83
17373;BME280;8803;48.116;11.590;2023-10-31T02:13:09;94194.11;;;14.08;98.08
17373;BME280;8803;48.116;11.590;2023-10-31T02:15:11;94202.14;;;14.08;98.93
17373;BME280;8803;48.116;11.590;2023-10-31T02:17:16;94219.03;;;14.09;98.65
17373;BME280;8803;48.116;11.590;2023-10-31T02:19:21;94211.17;;;14.07;98.21
17373;BME280;8803;48.116;11.590;2023-10-31T02:21:26;94206.02;;;14.06;98.74
17373;BME280;8803;48.116;11.590;2023-10-31T02:23:32;94216.92;;;14.04;98.50
17373;BME280;8803;48.116;11.590;2023-10-31T02:25:36;94220.61;;;14.03;98.49
17373;BME280;8803;48.116;11.590;2023-10-31T02:27:41;94216.09;;;14.04;98.15
17373;BME280;8803;48.116;11.590;2023-10-31T02:29:45;94228.34;;;14.02;98.25
17373;BME280;8803;48.116;11.590;2023-10-31T02:31:50;94226.66;;;14.01;98.08
17373;BME280;8803;48.116;11.590;2023-10-31T02:33:55;94233.56;;;14.00;97.78
17373;BME280;8803;48.116;11.590;2023-10-31T02:36:00;94230.55;;;13.99;98.42
17373;BME280;8803;48.116;11.590;2023-10-31T02:38:04;94231.59;;;13.98;97.72
17373;BME280;8803;48.116;11.590;2023-10-31T02:40:14;94232.09;;;13.97;97.72
17373;BME280;8803;48.116;11.590;2023-10-31T02:44:34;94224.69;;;13.99;98.10
17373;BME280;8803;48.116;11.590;2023-10-31T02:46:39;94224.46;;;13.94;97.87
17373;BME280;8803;48.116;11.590;2023-10-31T02:48:44;94240.52;;;13.94;98.18
17373;BME280;8803;48.116;11.590;2023-10-31T02:50:49;94236.17;;;13.93;98.51
17373;BME280;8803;48.116;11.590;2023-10-31T02:52:53;94233.16;;;13.92;98.50
17373;BME280;8803;48.116;11.590;2023-10-31T02:54:58;94224.00;;;13.91;98.07
17373;BME280;8803;48.116;11.590;2023-10-31T02:57:03;94224.20;;;13.89;98.41
17373;BME280;8803;48.116;11.590;2023-10-31T02:59:08;94230.05;;;13.89;98.14
17373;BME280;8803;48.116;11.590;2023-10-31T03:01:12;94232.09;;;13.87;97.94
17373;BME280;8803;48.116;11.590;2023-10-31T03:03:17;94239.48;;;13.85;97.92
17373;BME280;8803;48.116;11.590;2023-10-31T03:05:21;94244.00;;;13.84;97.60
17373;BME280;8803;48.116;11.590;2023-10-31T03:09:44;94237.64;;;13.85;98.00
17373;BME280;8803;48.116;11.590;2023-10-31T03:11:48;94255.39;;;13.82;97.69
17373;BME280;8803;48.116;11.590;2023-10-31T03:13:54;94256.94;;;13.81;97.53
17373;BME280;8803;48.116;11.590;2023-10-31T03:15:59;94275.16;;;13.81;97.41
17373;BME280;8803;48.116;11.590;2023-10-31T03:18:04;94275.02;;;13.79;97.21
17373;BME280;8803;48.116;11.590;2023-10-31T03:22:22;94270.31;;;13.81;97.58
17373;BME280;8803;48.116;11.590;2023-10-31T03:24:27;94264.69;;;13.76;97.06
17373;BME280;8803;48.116;11.590;2023-10-31T03:28:45;94254.63;;;13.78;98.45
17373;BME280;8803;48.116;11.590;2023-10-31T03:30:50;94257.06;;;13.73;97.85
17373;BME280;8803;48.116;11.590;2023-10-31T03:35:11;94241.25;;;13.78;97.19
17373;BME280;8803;48.116;11.590;2023-10-31T03:37:15;94248.01;;;13.74;96.97
17373;BME280;8803;48.116;11.590;2023-10-31T03:41:34;94245.27;;;13.78;98.39
17373;BME280;8803;48.116;11.590;2023-10-31T03:43:38;94245.53;;;13.72;96.79
17373;BME280;8803;48.116;11.590;2023-10-31T03:45:43;94246.56;;;13.71;96.31
17373;BME280;8803;48.116;11.590;2023-10-31T03:47:48;94242.55;;;13.71;96.25
17373;BME280;8803;48.116;11.590;2023-10-31T03:49:53;94242.72;;;13.70;97.10
17373;BME280;8803;48.116;11.590;2023-10-31T03:51:57;94247.77;;;13.69;97.34
17373;BME280;8803;48.116;11.590;2023-10-31T03:54:02;94257.13;;;13.69;97.04
17373;BME280;8803;48.116;11.590;2023-10-31T03:56:08;94262.98;;;13.68;97.04
17373;BME280;8803;48.116;11.590;2023-10-31T03:58:12;94263.98;;;13.67;96.93
17373;BME280;8803;48.116;11.590;2023-10-31T04:00:18;94271.20;;;13.67;96.38
17373;BME280;8803;48.116;11.590;2023-10-31T04:04:36;94269.30;;;13.71;96.55
17373;BME280;8803;48.116;11.590;2023-10-31T04:06:41;94269.73;;;13.64;96.06
17373;BME280;8803;48.116;11.590;2023-10-31T04:08:46;94275.91;;;13.65;96.33
17373;BME280;8803;48.116;11.590;2023-10-31T04:10:51;94268.39;;;13.64;96.63
17373;BME280;8803;48.116;11.590;2023-10-31T04:12:56;94265.72;;;13.64;95.88
17373;BME280;8803;48.116;11.590;2023-10-31T04:15:00;94267.89;;;13.65;95.93
17373;BME280;8803;48.116;11.590;2023-10-31T04:17:06;94271.06;;;13.64;95.44
17373;BME280;8803;48.116;11.590;2023-10-31T04:19:10;94284.44;;;13.64;95.52
17373;BME280;8803;48.116;11.590;2023-10-31T04:21:15;94291.82;;;13.62;95.23
17373;BME280;8803;48.116;11.590;2023-10-31T04:23:19;94300.06;;;13.57;95.22
17373;BME280;8803;48.116;11.590;2023-10-31T04:27:38;94307.03;;;13.62;95.77
17373;BME280;8803;48.116;11.590;2023-10-31T04:31:59;94306.83;;;13.63;96.59
17373;BME280;8803;48.116;11.590;2023-10-31T04:34:03;94309.76;;;13.58;96.09
17373;BME280;8803;48.116;11.590;2023-10-31T04:36:10;94305.75;;;13.58;95.55
17373;BME280;8803;48.116;11.590;2023-10-31T04:38:15;94307.92;;;13.58;95.33
17373;BME280;8803;48.116;11.590;2023-10-31T04:40:19;94309.26;;;13.58;95.31
17373;BME280;8803;48.116;11.590;2023-10-31T04:42:23;94307.42;;;13.59;95.00
17373;BME280;8803;48.116;11.590;2023-10-31T04:44:28;94305.25;;;13.58;94.64
17373;BME280;8803;48.116;11.590;2023-10-31T04:46:33;94301.23;;;13.58;94.60
17373;BME280;8803;48.116;11.590;2023-10-31T04:48:37;94303.91;;;13.58;94.54
17373;BME280;8803;48.116;11.590;2023-10-31T04:50:42;94306.09;;;13.59;94.20
17373;BME280;8803;48.116;11.590;2023-10-31T04:52:47;94305.25;;;13.58;94.07
17373;BME280;8803;48.116;11.590;2023-10-31T04:54:51;94302.58;;;13.58;93.92
17373;BME280;8803;48.116;11.590;2023-10-31T04:56:56;94301.23;;;13.58;94.03
17373;BME280;8803;48.116;11.590;2023-10-31T04:59:01;94299.41;;;13.59;93.84
17373;BME280;8803;48.116;11.590;2023-10-31T05:03:21;94281.12;;;13.62;94.16
17373;BME280;8803;48.116;11.590;2023-10-31T05:05:25;94298.56;;;13.58;93.60
17373;BME280;8803;48.116;11.590;2023-10-31T05:07:30;94306.25;;;13.57;93.68
17373;BME280;8803;48.116;11.590;2023-10-31T05:09:36;94308.92;;;13.57;93.49
17373;BME280;8803;48.116;11.590;2023-10-31T05:11:41;94313.44;;;13.57;93.50
17373;BME280;8803;48.116;11.590;2023-10-31T05:13:47;94309.13;;;13.56;93.53
17373;BME280;8803;48.116;11.590;2023-10-31T05:15:52;94318.78;;;13.57;93.93
17373;BME280;8803;48.116;11.590;2023-10-31T05:17:56;94320.13;;;13.57;94.13
17373;BME280;8803;48.116;11.590;2023-10-31T05:22:14;94329.13;;;13.60;93.62
17373;BME280;8803;48.116;11.590;2023-10-31T05:24:19;94336.86;;;13.55;93.24
17373;BME280;8803;48.116;11.590;2023-10-31T05:26:23;94337.70;;;13.55;93.47
17373;BME280;8803;48.116;11.590;2023-10-31T05:28:28;94344.08;;;13.54;93.34
17373;BME280;8803;48.116;11.590;2023-10-31T05:30:32;94349.92;;;13.54;93.48
17373;BME280;8803;48.116;11.590;2023-10-31T05:32:37;94348.78;;;13.52;93.40
17373;BME280;8803;48.116;11.590;2023-10-31T05:34:42;94362.96;;;13.53;93.31
17373;BME280;8803;48.116;11.590;2023-10-31T05:36:47;94352.27;;;13.53;93.25
17373;BME280;8803;48.116;11.590;2023-10-31T05:41:08;94355.41;;;13.56;93.44
17373;BME280;8803;48.116;11.590;2023-10-31T05:43:13;94358.64;;;13.52;93.18
17373;BME280;8803;48.116;11.590;2023-10-31T05:45:17;94361.81;;;13.51;93.40
17373;BME280;8803;48.116;11.590;2023-10-31T05:47:22;94362.85;;;13.50;93.36
17373;BME280;8803;48.116;11.590;2023-10-31T05:49:27;94362.02;;;13.50;93.24
17373;BME280;8803;48.116;11.590;2023-10-31T05:53:49;94373.80;;;13.55;93.55
17373;BME280;8803;48.116;11.590;2023-10-31T05:58:07;94374.99;;;13.53;93.79
17373;BME280;8803;48.116;11.590;2023-10-31T06:00:14;94375.58;;;13.48;93.72
17373;BME280;8803;48.116;11.590;2023-10-31T06:04:32;94378.70;;;13.52;94.64
17373;BME280;8803;48.116;11.590;2023-10-31T06:06:38;94379.25;;;13.47;93.65
17373;BME280;8803;48.116;11.590;2023-10-31T06:10:59;94385.69;;;13.53;93.98
17373;BME280;8803;48.116;11.590;2023-10-31T06:15:18;94376.86;;;13.52;93.61
17373;BME280;8803;48.116;11.590;2023-10-31T06:17:23;94380.59;;;13.47;93.37
17373;BME280;8803;48.116;11.590;2023-10-31T06:21:42;94385.53;;;13.54;93.74
17373;BME280;8803;48.116;11.590;2023-10-31T06:23:47;94395.62;;;13.48;93.61
17373;BME280;8803;48.116;11.590;2023-10-31T06:25:51;94402.62;;;13.49;93.53
17373;BME280;8803;48.116;11.590;2023-10-31T06:30:17;94405.58;;;13.54;93.20
17373;BME280;8803;48.116;11.590;2023-10-31T06:32:21;94412.81;;;13.50;92.87
17373;BME280;8803;48.116;11.590;2023-10-31T06:34:26;94414.80;;;13.52;93.06
17373;BME280;8803;48.116;11.590;2023-10-31T06:36:31;94411.63;;;13.52;92.59
17373;BME280;8803;48.116;11.590;2023-10-31T06:38:35;94400.92;;;13.52;92.54
17373;BME280;8803;48.116;11.590;2023-10-31T06:40:40;94400.28;;;13.50;92.89
17373;BME280;8803;48.116;11.590;2023-10-31T06:42:44;94407.27;;;13.51;93.30
17373;BME280;8803;48.116;11.590;2023-10-31T06:44:49;94415.80;;;13.51;92.71
17373;BME280;8803;48.116;11.590;2023-10-31T06:46:54;94412.13;;;13.52;92.65
17373;BME280;8803;48.116;11.590;2023-10-31T06:48:59;94413.66;;;13.50;92.76
17373;BME280;8803;48.116;11.590;2023-10-31T06:51:05;94411.78;;;13.51;93.01
17373;BME280;8803;48.116;11.590;2023-10-31T06:53:09;94421.48;;;13.52;92.95
17373;BME280;8803;48.116;11.590;2023-10-31T06:57:27;94430.79;;;13.56;93.33
17373;BME280;8803;48.116;11.590;2023-10-31T06:59:32;94438.02;;;13.51;92.84
17373;BME280;8803;48.116;11.590;2023-10-31T07:01:36;94441.03;;;13.52;92.89
17373;BME280;8803;48.116;11.590;2023-10-31T07:03:41;94446.38;;;13.52;92.96
17373;BME280;8803;48.116;11.590;2023-10-31T07:07:59;94449.31;;;13.57;92.89
17373;BME280;8803;48.116;11.590;2023-10-31T07:10:05;94449.86;;;13.53;93.04
17373;BME280;8803;48.116;11.590;2023-10-31T07:12:10;94451.84;;;13.55;93.44
17373;BME280;8803;48.116;11.590;2023-10-31T07:16:34;94454.30;;;13.60;92.91
17373;BME280;8803;48.116;11.590;2023-10-31T07:18:38;94454.86;;;13.56;92.45
17373;BME280;8803;48.116;11.590;2023-10-31T07:20:43;94447.83;;;13.55;93.44
17373;BME280;8803;48.116;11.590;2023-10-31T07:22:47;94444.66;;;13.55;93.21
17373;BME280;8803;48.116;11.590;2023-10-31T07:24:52;94446.14;;;13.58;92.72
17373;BME280;8803;48.116;11.590;2023-10-31T07:26:57;94446.98;;;13.58;92.36
17373;BME280;8803;48.116;11.590;2023-10-31T07:31:14;94437.70;;;13.65;93.23
17373;BME280;8803;48.116;11.590;2023-10-31T07:33:19;94435.89;;;13.61;92.87
17373;BME280;8803;48.116;11.590;2023-10-31T07:35:23;94433.55;;;13.62;92.67
17373;BME280;8803;48.116;11.590;2023-10-31T07:39:45;94435.53;;;13.64;92.44
17373;BME280;8803;48.116;11.590;2023-10-31T07:44:04;94443.51;;;13.68;92.57
17373;BME280;8803;48.116;11.590;2023-10-31T07:46:09;94454.75;;;13.64;92.75
17373;BME280;8803;48.116;11.590;2023-10-31T07:48:15;94462.09;;;13.66;92.15
17373;BME280;8803;48.116;11.590;2023-10-31T07:50:19;94472.59;;;13.67;92.10
17373;BME280;8803;48.116;11.590;2023-10-31T07:52:24;94473.77;;;13.69;91.25
17373;BME280;8803;48.116;11.590;2023-10-31T07:56:42;94469.52;;;13.74;92.10
17373;BME280;8803;48.116;11.590;2023-10-31T07:58:46;94471.05;;;13.73;91.15
17373;BME280;8803;48.116;11.590;2023-10-31T08:00:51;94465.19;;;13.73;91.09
17373;BME280;8803;48.116;11.590;2023-10-31T08:05:13;94455.39;;;13.80;90.77
17373;BME280;8803;48.116;11.590;2023-10-31T08:07:18;94451.23;;;13.78;90.13
17373;BME280;8803;48.116;11.590;2023-10-31T08:09:23;94453.27;;;13.76;89.16
17373;BME280;8803;48.116;11.590;2023-10-31T08:11:28;94464.50;;;13.75;89.49
17373;BME280;8803;48.116;11.590;2023-10-31T08:13:33;94464.50;;;13.75;89.62
17373;BME280;8803;48.116;11.590;2023-10-31T08:15:38;94477.18;;;13.77;90.03
17373;BME280;8803;48.116;11.590;2023-10-31T08:17:42;94476.14;;;13.78;90.26
17373;BME280;8803;48.116;11.590;2023-10-31T08:19:47;94489.16;;;13.81;90.15
17373;BME280;8803;48.116;11.590;2023-10-31T08:24:05;94506.95;;;13.89;89.88
17373;BME280;8803;48.116;11.590;2023-10-31T08:26:09;94531.23;;;13.87;89.85
17373;BME280;8803;48.116;11.590;2023-10-31T08:30:28;94527.67;;;13.91;89.94
17373;BME280;8803;48.116;11.590;2023-10-31T08:32:33;94531.53;;;13.88;89.55
17373;BME280;8803;48.116;11.590;2023-10-31T08:34:38;94539.56;;;13.88;89.05
17373;BME280;8803;48.116;11.590;2023-10-31T08:36:42;94551.10;;;13.89;89.01
17373;BME280;8803;48.116;11.590;2023-10-31T08:38:47;94555.45;;;13.90;89.06
17373;BME280;8803;48.116;11.590;2023-10-31T08:40:52;94562.95;;;13.90;88.53
17373;BME280;8803;48.116;11.590;2023-10-31T08:45:10;94570.43;;;13.95;88.41
17373;BME280;8803;48.116;11.590;2023-10-31T08:47:15;94578.20;;;13.90;88.15
17373;BME280;8803;48.116;11.590;2023-10-31T08:49:20;94576.86;;;13.90;88.33
17373;BME280;8803;48.116;11.590;2023-10-31T08:51:25;94581.18;;;13.91;88.04
17373;BME280;8803;48.116;11.590;2023-10-31T08:53:30;94579.34;;;13.91;88.15
17373;BME280;8803;48.116;11.590;2023-10-31T08:55:34;94580.18;;;13.92;88.52
17373;BME280;8803;48.116;11.590;2023-10-31T08:59:51;94574.59;;;13.97;88.26
17373;BME280;8803;48.116;11.590;2023-10-31T09:01:56;94577.31;;;13.93;87.88
17373;BME280;8803;48.116;11.590;2023-10-31T09:04:01;94571.77;;;13.95;87.71
17373;BME280;8803;48.116;11.590;2023-10-31T09:06:07;94575.28;;;13.95;87.74
17373;BME280;8803;48.116;11.590;2023-10-31T09:08:11;94579.63;;;13.96;87.54
17373;BME280;8803;48.116;11.590;2023-10-31T09:12:29;94578.89;;;14.02;87.88
17373;BME280;8803;48.116;11.590;2023-10-31T09:14:34;94584.10;;;14.00;87.42
17373;BME280;8803;48.116;11.590;2023-10-31T09:16:40;94581.73;;;14.01;86.99
17373;BME280;8803;48.116;11.590;2023-10-31T09:18:44;94583.41;;;14.02;86.88
17373;BME280;8803;48.116;11.590;2023-10-31T09:20:50;94590.41;;;14.03;87.12
17373;BME280;8803;48.116;11.590;2023-10-31T09:22:55;94588.57;;;14.03;86.83
17373;BME280;8803;48.116;11.590;2023-10-31T09:24:59;94588.07;;;14.04;86.59
17373;BME280;8803;48.116;11.590;2023-10-31T09:27:05;94585.39;;;14.04;86.79
17373;BME280;8803;48.116;11.590;2023-10-31T09:29:11;94588.38;;;14.05;86.64
17373;BME280;8803;48.116;11.590;2023-10-31T09:31:16;94592.23;;;14.06;86.51
17373;BME280;8803;48.116;11.590;2023-10-31T09:35:36;94600.41;;;14.09;86.93
17373;BME280;8803;48.116;11.590;2023-10-31T09:37:41;94596.74;;;14.06;86.61
17373;BME280;8803;48.116;11.590;2023-10-31T09:39:46;94606.75;;;14.08;86.28
17373;BME280;8803;48.116;11.590;2023-10-31T09:41:51;94609.77;;;14.09;86.18
17373;BME280;8803;48.116;11.590;2023-10-31T09:43:56;94618.30;;;14.08;86.23
17373;BME280;8803;48.116;11.590;2023-10-31T09:48:13;94610.87;;;14.14;86.40
17373;BME280;8803;48.116;11.590;2023-10-31T09:50:18;94614.73;;;14.12;85.77
17373;BME280;8803;48.116;11.590;2023-10-31T09:52:23;94608.88;;;14.12;85.57
17373;BME280;8803;48.116;11.590;2023-10-31T09:54:29;94605.87;;;14.11;85.53
17373;BME280;8803;48.116;11.590;2023-10-31T09:56:34;94599.18;;;14.11;84.49
17373;BME280;8803;48.116;11.590;2023-10-31T09:58:39;94598.38;;;14.11;85.28
17373;BME280;8803;48.116;11.590;2023-10-31T10:00:44;94603.53;;;14.12;85.46
17373;BME280;8803;48.116;11.590;2023-10-31T10:02:50;94610.22;;;14.12;85.38
17373;BME280;8803;48.116;11.590;2023-10-31T10:04:55;94614.55;;;14.13;85.14
17373;BME280;8803;48.116;11.590;2023-10-31T10:07:01;94623.56;;;14.16;84.82
17373;BME280;8803;48.116;11.590;2023-10-31T10:09:07;94628.08;;;14.16;85.10
17373;BME280;8803;48.116;11.590;2023-10-31T10:11:12;94633.58;;;14.18;85.04
17373;BME280;8803;48.116;11.590;2023-10-31T10:13:18;94646.46;;;14.19;84.87
17373;BME280;8803;48.116;11.590;2023-10-31T10:15:23;94660.80;;;14.22;84.77
17373;BME280;8803;48.116;11.590;2023-10-31T10:17:27;94663.47;;;14.22;84.73
17373;BME280;8803;48.116;11.590;2023-10-31T10:19:32;94666.99;;;14.22;84.83
17373;BME280;8803;48.116;11.590;2023-10-31T10:24:03;94663.11;;;14.29;84.87
17373;BME280;8803;48.116;11.590;2023-10-31T10:26:08;94660.45;;;14.25;84.42
17373;BME280;8803;48.116;11.590;2023-10-31T10:30:27;94663.25;;;14.32;84.74
17373;BME280;8803;48.116;11.590;2023-10-31T10:32:32;94663.11;;;14.29;84.29
17373;BME280;8803;48.116;11.590;2023-10-31T10:36:50;94656.70;;;14.34;84.17
17373;BME280;8803;48.116;11.590;2023-10-31T10:41:11;94660.14;;;14.39;84.11
17373;BME280;8803;48.116;11.590;2023-10-31T10:43:21;94667.88;;;14.38;83.70
17373;BME280;8803;48.116;11.590;2023-10-31T10:45:26;94664.16;;;14.39;83.61
17373;BME280;8803;48.116;11.590;2023-10-31T10:47:32;94661.82;;;14.40;83.58
17373;BME280;8803;48.116;11.590;2023-10-31T10:49:37;94655.27;;;14.42;83.47
17373;BME280;8803;48.116;11.590;2023-10-31T10:54:02;94647.64;;;14.50;83.44
17373;BME280;8803;48.116;11.590;2023-10-31T10:58:33;94649.45;;;14.53;83.98
17373;BME280;8803;48.116;11.590;2023-10-31T11:00:38;94652.16;;;14.49;83.41
17373;BME280;8803;48.116;11.590;2023-10-31T11:02:44;94654.14;;;14.51;83.32
17373;BME280;8803;48.116;11.590;2023-10-31T11:04:49;94653.64;;;14.52;83.04
17373;BME280;8803;48.116;11.590;2023-10-31T11:06:54;94654.28;;;14.54;83.05
17373;BME280;8803;48.116;11.590;2023-10-31T11:08:59;94657.30;;;14.55;83.06
17373;BME280;8803;48.116;11.590;2023-10-31T11:11:05;94656.60;;;14.57;83.07
17373;BME280;8803;48.116;11.590;2023-10-31T11:13:11;94657.25;;;14.59;82.92
17373;BME280;8803;48.116;11.590;2023-10-31T11:15:17;94653.88;;;14.61;83.15
17373;BME280;8803;48.116;11.590;2023-10-31T11:17:24;94648.66;;;14.63;82.76
17373;BME280;8803;48.116;11.590;2023-10-31T11:19:31;94645.78;;;14.65;82.63
17373;BME280;8803;48.116;11.590;2023-10-31T11:21:37;94641.58;;;14.66;82.38
17373;BME280;8803;48.116;11.590;2023-10-31T11:25:56;94638.48;;;14.73;82.48
17373;BME280;8803;48.116;11.590;2023-10-31T11:28:14;94645.67;;;14.73;82.30
17373;BME280;8803;48.116;11.590;2023-10-31T11:30:27;94645.48;;;14.74;82.38
17373;BME280;8803;48.116;11.590;2023-10-31T11:32:33;94640.80;;;14.76;81.93
17373;BME280;8803;48.116;11.590;2023-10-31T11:34:39;94643.42;;;14.80;81.76
17373;BME280;8803;48.116;11.590;2023-10-31T11:36:45;94640.05;;;14.82;81.63
17373;BME280;8803;48.116;11.590;2023-10-31T11:38:50;94640.35;;;14.83;81.48
17373;BME280;8803;48.116;11.590;2023-10-31T11:43:21;94634.02;;;14.95;82.03
17373;BME280;8803;48.116;11.590;2023-10-31T11:45:33;94636.22;;;14.91;81.40
17373;BME280;8803;48.116;11.590;2023-10-31T11:47:47;94635.52;;;14.93;81.25
17373;BME280;8803;48.116;11.590;2023-10-31T11:49:52;94635.02;;;14.94;81.14
17373;BME280;8803;48.116;11.590;2023-10-31T11:51:56;94638.34;;;14.96;80.51
17373;BME280;8803;48.116;11.590;2023-10-31T11:54:03;94637.84;;;14.96;80.71
17373;BME280;8803;48.116;11.590;2023-10-31T11:56:11;94634.95;;;14.98;80.67
17373;BME280;8803;48.116;11.590;2023-10-31T11:58:17;94636.23;;;15.02;80.82
17373;BME280;8803;48.116;11.590;2023-10-31T12:00:23;94634.53;;;15.05;80.59
17373;BME280;8803;48.116;11.590;2023-10-31T12:02:29;94635.17;;;15.07;80.40
17373;BME280;8803;48.116;11.590;2023-10-31T12:04:33;94620.23;;;15.09;80.31
17373;BME280;8803;48.116;11.590;2023-10-31T12:06:38;94629.75;;;15.11;80.23
17373;BME280;8803;48.116;11.590;2023-10-31T12:08:43;94620.70;;;15.12;79.91
17373;BME280;8803;48.116;11.590;2023-10-31T12:10:49;94618.66;;;15.14;79.88
17373;BME280;8803;48.116;11.590;2023-10-31T12:12:54;94617.96;;;15.16;79.51
17373;BME280;8803;48.116;11.590;2023-10-31T12:15:06;94621.78;;;15.18;79.51
17373;BME280;8803;48.116;11.590;2023-10-31T12:17:11;94621.38;;;15.21;79.51
17373;BME280;8803;48.116;11.590;2023-10-31T12:19:15;94618.53;;;15.22;79.39
17373;BME280;8803;48.116;11.590;2023-10-31T12:23:37;94617.06;;;15.30;79.48
17373;BME280;8803;48.116;11.590;2023-10-31T12:25:48;94616.93;;;15.28;79.06
17373;BME280;8803;48.116;11.590;2023-10-31T12:27:53;94614.89;;;15.30;79.21
17373;BME280;8803;48.116;11.590;2023-10-31T12:30:03;94611.91;;;15.29;79.07
17373;BME280;8803;48.116;11.590;2023-10-31T12:34:23;94608.59;;;15.37;79.16
17373;BME280;8803;48.116;11.590;2023-10-31T12:36:28;94623.00;;;15.36;78.95
17373;BME280;8803;48.116;11.590;2023-10-31T12:38:33;94620.13;;;15.38;78.89
17373;BME280;8803;48.116;11.590;2023-10-31T12:40:38;94621.80;;;15.39;78.90
17373;BME280;8803;48.116;11.590;2023-10-31T12:42:45;94618.67;;;15.35;78.47
17373;BME280;8803;48.116;11.590;2023-10-31T12:47:09;94617.53;;;15.44;77.92
17373;BME280;8803;48.116;11.590;2023-10-31T12:49:17;94624.28;;;15.40;77.65
17373;BME280;8803;48.116;11.590;2023-10-31T12:51:23;94628.09;;;15.42;77.69
17373;BME280;8803;48.116;11.590;2023-10-31T12:53:27;94629.44;;;15.42;77.87
17373;BME280;8803;48.116;11.590;2023-10-31T12:55:38;94635.00;;;15.40;77.69
17373;BME280;8803;48.116;11.590;2023-10-31T12:57:43;94637.66;;;15.44;78.13
17373;BME280;8803;48.116;11.590;2023-10-31T12:59:49;94640.03;;;15.43;77.33
17373;BME280;8803;48.116;11.590;2023-10-31T13:01:53;94633.66;;;15.40;77.33
17373;BME280;8803;48.116;11.590;2023-10-31T13:03:58;94642.75;;;15.39;77.84
17373;BME280;8803;48.116;11.590;2023-10-31T13:06:16;94642.61;;;15.37;77.78
17373;BME280;8803;48.116;11.590;2023-10-31T13:10:34;94641.27;;;15.37;77.91
17373;BME280;8803;48.116;11.590;2023-10-31T13:12:39;94655.11;;;15.30;77.69
17373;BME280;8803;48.116;11.590;2023-10-31T13:16:56;94660.98;;;15.29;77.70
17373;BME280;8803;48.116;11.590;2023-10-31T13:19:01;94663.42;;;15.24;77.75